sensor_id;sensor_type;location;lat;lon;timestamp;P1;durP1;ratioP1;P2;durP2;ratioP2
52586;SDS011;38480;52.724;6.436;2023-08-30T00:00:54;38.00;;;29.00;;
52586;SDS011;38480;52.724;6.436;2023-08-30T00:03:20;42.27;;;30.87;;
52586;SDS011;38480;52.724;6.436;2023-08-30T00:05:46;43.33;;;31.83;;
52586;SDS011;38480;52.724;6.436;2023-08-30T00:08:13;41.43;;;29.17;;
52586;SDS011;38480;52.724;6.436;2023-08-30T00:10:43;39.53;;;27.67;;
52586;SDS011;38480;52.724;6.436;2023-08-30T00:13:09;42.63;;;28.03;;
52586;SDS011;38480;52.724;6.436;2023-08-30T00:15:35;37.87;;;27.07;;
52586;SDS011;38480;52.724;6.436;2023-08-30T00:18:01;40.93;;;27.97;;
52586;SDS011;38480;52.724;6.436;2023-08-30T00:20:27;41.33;;;28.63;;
52586;SDS011;38480;52.724;6.436;2023-08-30T00:22:53;43.60;;;30.47;;
52586;SDS011;38480;52.724;6.436;2023-08-30T00:25:19;41.70;;;27.63;;
52586;SDS011;38480;52.724;6.436;2023-08-30T00:27:44;39.43;;;25.40;;
52586;SDS011;38480;52.724;6.436;2023-08-30T00:30:11;33.90;;;25.00;;
52586;SDS011;38480;52.724;6.436;2023-08-30T00:32:37;31.53;;;23.93;;
52586;SDS011;38480;52.724;6.436;2023-08-30T00:35:03;33.83;;;24.17;;
52586;SDS011;38480;52.724;6.436;2023-08-30T00:37:29;30.47;;;23.90;;
52586;SDS011;38480;52.724;6.436;2023-08-30T00:39:55;32.10;;;23.03;;
52586;SDS011;38480;52.724;6.436;2023-08-30T00:42:21;33.30;;;22.90;;
52586;SDS011;38480;52.724;6.436;2023-08-30T00:44:47;31.97;;;23.07;;
52586;SDS011;38480;52.724;6.436;2023-08-30T00:47:13;31.30;;;23.07;;
52586;SDS011;38480;52.724;6.436;2023-08-30T00:49:39;32.07;;;23.47;;
52586;SDS011;38480;52.724;6.436;2023-08-30T00:52:06;35.17;;;22.50;;
52586;SDS011;38480;52.724;6.436;2023-08-30T00:54:33;29.07;;;22.87;;
52586;SDS011;38480;52.724;6.436;2023-08-30T00:57:00;29.90;;;22.10;;
52586;SDS011;38480;52.724;6.436;2023-08-30T00:59:29;33.57;;;21.93;;
52586;SDS011;38480;52.724;6.436;2023-08-30T01:01:55;32.97;;;21.93;;
52586;SDS011;38480;52.724;6.436;2023-08-30T01:04:21;27.43;;;20.00;;
52586;SDS011;38480;52.724;6.436;2023-08-30T01:06:48;29.57;;;20.10;;
52586;SDS011;38480;52.724;6.436;2023-08-30T01:09:14;25.43;;;19.77;;
52586;SDS011;38480;52.724;6.436;2023-08-30T01:11:46;30.07;;;21.57;;
52586;SDS011;38480;52.724;6.436;2023-08-30T01:14:18;25.40;;;18.20;;
52586;SDS011;38480;52.724;6.436;2023-08-30T01:16:46;27.07;;;19.30;;
52586;SDS011;38480;52.724;6.436;2023-08-30T01:22:12;24.53;;;17.77;;
52586;SDS011;38480;52.724;6.436;2023-08-30T01:24:55;23.67;;;16.83;;
52586;SDS011;38480;52.724;6.436;2023-08-30T01:27:23;19.07;;;15.63;;
52586;SDS011;38480;52.724;6.436;2023-08-30T01:29:51;28.63;;;16.53;;
52586;SDS011;38480;52.724;6.436;2023-08-30T01:32:19;22.33;;;16.77;;
52586;SDS011;38480;52.724;6.436;2023-08-30T01:34:47;20.47;;;16.33;;
52586;SDS011;38480;52.724;6.436;2023-08-30T01:37:14;19.73;;;15.80;;
52586;SDS011;38480;52.724;6.436;2023-08-30T01:39:40;18.90;;;15.93;;
52586;SDS011;38480;52.724;6.436;2023-08-30T01:42:07;26.93;;;18.10;;
52586;SDS011;38480;52.724;6.436;2023-08-30T01:44:33;21.43;;;17.23;;
52586;SDS011;38480;52.724;6.436;2023-08-30T01:47:00;21.70;;;16.83;;
52586;SDS011;38480;52.724;6.436;2023-08-30T01:49:28;28.63;;;17.87;;
52586;SDS011;38480;52.724;6.436;2023-08-30T01:51:57;25.57;;;16.73;;
52586;SDS011;38480;52.724;6.436;2023-08-30T01:54:23;20.97;;;16.20;;
52586;SDS011;38480;52.724;6.436;2023-08-30T01:56:49;20.37;;;16.70;;
52586;SDS011;38480;52.724;6.436;2023-08-30T01:59:15;22.60;;;17.90;;
52586;SDS011;38480;52.724;6.436;2023-08-30T02:01:41;22.73;;;16.67;;
52586;SDS011;38480;52.724;6.436;2023-08-30T02:04:07;21.40;;;17.17;;
52586;SDS011;38480;52.724;6.436;2023-08-30T02:06:35;22.53;;;16.80;;
52586;SDS011;38480;52.724;6.436;2023-08-30T02:09:09;20.70;;;17.53;;
52586;SDS011;38480;52.724;6.436;2023-08-30T02:11:35;23.50;;;18.03;;
52586;SDS011;38480;52.724;6.436;2023-08-30T02:14:02;21.27;;;18.00;;
52586;SDS011;38480;52.724;6.436;2023-08-30T02:16:31;20.23;;;15.73;;
52586;SDS011;38480;52.724;6.436;2023-08-30T02:18:58;22.53;;;16.80;;
52586;SDS011;38480;52.724;6.436;2023-08-30T02:21:24;20.70;;;16.83;;
52586;SDS011;38480;52.724;6.436;2023-08-30T02:23:50;23.83;;;17.10;;
52586;SDS011;38480;52.724;6.436;2023-08-30T02:26:18;22.00;;;17.00;;
52586;SDS011;38480;52.724;6.436;2023-08-30T02:28:44;21.50;;;16.53;;
52586;SDS011;38480;52.724;6.436;2023-08-30T02:31:10;23.23;;;16.43;;
52586;SDS011;38480;52.724;6.436;2023-08-30T02:33:36;21.63;;;16.57;;
52586;SDS011;38480;52.724;6.436;2023-08-30T02:36:05;19.23;;;15.97;;
52586;SDS011;38480;52.724;6.436;2023-08-30T02:38:31;20.57;;;15.53;;
52586;SDS011;38480;52.724;6.436;2023-08-30T02:40:57;21.40;;;15.83;;
52586;SDS011;38480;52.724;6.436;2023-08-30T02:43:23;23.73;;;15.53;;
52586;SDS011;38480;52.724;6.436;2023-08-30T02:45:49;21.47;;;15.10;;
52586;SDS011;38480;52.724;6.436;2023-08-30T02:48:17;19.83;;;15.80;;
52586;SDS011;38480;52.724;6.436;2023-08-30T02:50:43;23.60;;;15.87;;
52586;SDS011;38480;52.724;6.436;2023-08-30T02:53:09;21.23;;;16.03;;
52586;SDS011;38480;52.724;6.436;2023-08-30T02:55:35;22.47;;;17.07;;
52586;SDS011;38480;52.724;6.436;2023-08-30T02:58:01;23.97;;;16.70;;
52586;SDS011;38480;52.724;6.436;2023-08-30T03:00:27;20.97;;;17.63;;
52586;SDS011;38480;52.724;6.436;2023-08-30T03:02:53;21.70;;;17.77;;
52586;SDS011;38480;52.724;6.436;2023-08-30T03:05:19;28.50;;;18.60;;
52586;SDS011;38480;52.724;6.436;2023-08-30T03:07:45;24.63;;;18.07;;
52586;SDS011;38480;52.724;6.436;2023-08-30T03:10:11;26.70;;;18.03;;
52586;SDS011;38480;52.724;6.436;2023-08-30T03:12:37;23.37;;;17.60;;
52586;SDS011;38480;52.724;6.436;2023-08-30T03:15:03;22.27;;;17.50;;
52586;SDS011;38480;52.724;6.436;2023-08-30T03:17:30;25.40;;;17.60;;
52586;SDS011;38480;52.724;6.436;2023-08-30T03:19:56;25.63;;;17.17;;
52586;SDS011;38480;52.724;6.436;2023-08-30T03:22:22;26.00;;;17.30;;
52586;SDS011;38480;52.724;6.436;2023-08-30T03:24:48;21.47;;;15.77;;
52586;SDS011;38480;52.724;6.436;2023-08-30T03:27:15;26.23;;;17.27;;
52586;SDS011;38480;52.724;6.436;2023-08-30T03:29:41;20.40;;;17.50;;
52586;SDS011;38480;52.724;6.436;2023-08-30T03:32:07;23.20;;;17.63;;
52586;SDS011;38480;52.724;6.436;2023-08-30T03:34:33;27.50;;;17.80;;
52586;SDS011;38480;52.724;6.436;2023-08-30T03:36:59;25.97;;;18.27;;
52586;SDS011;38480;52.724;6.436;2023-08-30T03:39:25;27.13;;;19.93;;
52586;SDS011;38480;52.724;6.436;2023-08-30T03:41:51;26.40;;;18.23;;
52586;SDS011;38480;52.724;6.436;2023-08-30T03:44:17;26.73;;;17.13;;
52586;SDS011;38480;52.724;6.436;2023-08-30T03:46:43;24.23;;;18.37;;
52586;SDS011;38480;52.724;6.436;2023-08-30T03:49:09;21.97;;;16.93;;
52586;SDS011;38480;52.724;6.436;2023-08-30T03:51:35;22.07;;;17.07;;
52586;SDS011;38480;52.724;6.436;2023-08-30T03:54:01;21.00;;;16.00;;
52586;SDS011;38480;52.724;6.436;2023-08-30T03:56:27;21.27;;;15.70;;
52586;SDS011;38480;52.724;6.436;2023-08-30T03:58:53;19.40;;;15.77;;
52586;SDS011;38480;52.724;6.436;2023-08-30T04:01:19;21.73;;;16.40;;
52586;SDS011;38480;52.724;6.436;2023-08-30T04:03:45;22.17;;;15.33;;
52586;SDS011;38480;52.724;6.436;2023-08-30T04:06:11;22.13;;;16.13;;
52586;SDS011;38480;52.724;6.436;2023-08-30T04:08:37;23.20;;;15.50;;
52586;SDS011;38480;52.724;6.436;2023-08-30T04:11:02;21.77;;;14.40;;
52586;SDS011;38480;52.724;6.436;2023-08-30T04:13:28;18.13;;;15.20;;
52586;SDS011;38480;52.724;6.436;2023-08-30T04:15:55;21.43;;;16.33;;
52586;SDS011;38480;52.724;6.436;2023-08-30T04:18:23;22.47;;;16.03;;
52586;SDS011;38480;52.724;6.436;2023-08-30T04:20:49;21.33;;;16.37;;
52586;SDS011;38480;52.724;6.436;2023-08-30T04:23:15;20.83;;;16.57;;
52586;SDS011;38480;52.724;6.436;2023-08-30T04:25:41;21.57;;;16.07;;
52586;SDS011;38480;52.724;6.436;2023-08-30T04:28:07;21.63;;;16.70;;
52586;SDS011;38480;52.724;6.436;2023-08-30T04:30:35;21.50;;;15.67;;
52586;SDS011;38480;52.724;6.436;2023-08-30T04:33:01;19.50;;;15.17;;
52586;SDS011;38480;52.724;6.436;2023-08-30T04:35:28;20.37;;;16.07;;
52586;SDS011;38480;52.724;6.436;2023-08-30T04:37:54;21.47;;;15.60;;
52586;SDS011;38480;52.724;6.436;2023-08-30T04:40:20;19.07;;;14.37;;
52586;SDS011;38480;52.724;6.436;2023-08-30T04:42:46;18.50;;;15.00;;
52586;SDS011;38480;52.724;6.436;2023-08-30T04:45:12;19.00;;;15.13;;
52586;SDS011;38480;52.724;6.436;2023-08-30T04:47:38;18.73;;;14.73;;
52586;SDS011;38480;52.724;6.436;2023-08-30T04:50:04;20.70;;;14.23;;
52586;SDS011;38480;52.724;6.436;2023-08-30T04:52:31;16.17;;;12.57;;
52586;SDS011;38480;52.724;6.436;2023-08-30T04:54:56;19.40;;;12.90;;
52586;SDS011;38480;52.724;6.436;2023-08-30T04:57:22;16.17;;;12.77;;
52586;SDS011;38480;52.724;6.436;2023-08-30T04:59:48;17.90;;;12.33;;
52586;SDS011;38480;52.724;6.436;2023-08-30T05:02:14;14.87;;;12.07;;
52586;SDS011;38480;52.724;6.436;2023-08-30T05:04:40;14.97;;;11.70;;
52586;SDS011;38480;52.724;6.436;2023-08-30T05:07:06;18.27;;;11.93;;
52586;SDS011;38480;52.724;6.436;2023-08-30T05:09:32;17.80;;;12.83;;
52586;SDS011;38480;52.724;6.436;2023-08-30T05:12:00;16.47;;;12.40;;
52586;SDS011;38480;52.724;6.436;2023-08-30T05:14:26;15.87;;;12.17;;
52586;SDS011;38480;52.724;6.436;2023-08-30T05:16:52;21.17;;;12.70;;
52586;SDS011;38480;52.724;6.436;2023-08-30T05:19:18;14.83;;;10.97;;
52586;SDS011;38480;52.724;6.436;2023-08-30T05:21:44;15.03;;;11.33;;
52586;SDS011;38480;52.724;6.436;2023-08-30T05:24:10;17.43;;;12.17;;
52586;SDS011;38480;52.724;6.436;2023-08-30T05:26:36;16.53;;;12.30;;
52586;SDS011;38480;52.724;6.436;2023-08-30T05:29:03;14.60;;;11.97;;
52586;SDS011;38480;52.724;6.436;2023-08-30T05:31:29;16.17;;;11.57;;
52586;SDS011;38480;52.724;6.436;2023-08-30T05:33:55;15.20;;;11.97;;
52586;SDS011;38480;52.724;6.436;2023-08-30T05:36:20;16.10;;;11.60;;
52586;SDS011;38480;52.724;6.436;2023-08-30T05:38:46;17.47;;;11.57;;
52586;SDS011;38480;52.724;6.436;2023-08-30T05:41:12;16.40;;;11.67;;
52586;SDS011;38480;52.724;6.436;2023-08-30T05:43:38;15.63;;;12.93;;
52586;SDS011;38480;52.724;6.436;2023-08-30T05:46:04;17.40;;;12.60;;
52586;SDS011;38480;52.724;6.436;2023-08-30T05:48:33;18.27;;;11.60;;
52586;SDS011;38480;52.724;6.436;2023-08-30T05:50:59;16.97;;;11.37;;
52586;SDS011;38480;52.724;6.436;2023-08-30T05:53:25;15.47;;;11.53;;
52586;SDS011;38480;52.724;6.436;2023-08-30T05:55:51;19.50;;;11.87;;
52586;SDS011;38480;52.724;6.436;2023-08-30T05:58:17;13.73;;;10.40;;
52586;SDS011;38480;52.724;6.436;2023-08-30T06:00:43;15.83;;;11.20;;
52586;SDS011;38480;52.724;6.436;2023-08-30T06:03:09;16.23;;;12.27;;
52586;SDS011;38480;52.724;6.436;2023-08-30T06:05:35;14.93;;;11.93;;
52586;SDS011;38480;52.724;6.436;2023-08-30T06:08:01;17.17;;;11.40;;
52586;SDS011;38480;52.724;6.436;2023-08-30T06:10:27;15.07;;;11.17;;
52586;SDS011;38480;52.724;6.436;2023-08-30T06:12:53;14.80;;;10.90;;
52586;SDS011;38480;52.724;6.436;2023-08-30T06:15:19;15.73;;;11.10;;
52586;SDS011;38480;52.724;6.436;2023-08-30T06:17:45;14.53;;;11.47;;
52586;SDS011;38480;52.724;6.436;2023-08-30T06:20:12;13.17;;;11.00;;
52586;SDS011;38480;52.724;6.436;2023-08-30T06:22:38;16.03;;;11.43;;
52586;SDS011;38480;52.724;6.436;2023-08-30T06:25:06;14.70;;;11.10;;
52586;SDS011;38480;52.724;6.436;2023-08-30T06:27:32;14.93;;;11.77;;
52586;SDS011;38480;52.724;6.436;2023-08-30T06:29:58;13.97;;;11.10;;
52586;SDS011;38480;52.724;6.436;2023-08-30T06:32:25;15.50;;;11.47;;
52586;SDS011;38480;52.724;6.436;2023-08-30T06:34:51;16.40;;;12.10;;
52586;SDS011;38480;52.724;6.436;2023-08-30T06:37:17;15.77;;;11.83;;
52586;SDS011;38480;52.724;6.436;2023-08-30T06:39:43;18.43;;;11.43;;
52586;SDS011;38480;52.724;6.436;2023-08-30T06:42:09;14.87;;;10.53;;
52586;SDS011;38480;52.724;6.436;2023-08-30T06:44:34;18.13;;;11.63;;
52586;SDS011;38480;52.724;6.436;2023-08-30T06:47:00;14.50;;;11.33;;
52586;SDS011;38480;52.724;6.436;2023-08-30T06:49:26;13.10;;;10.27;;
52586;SDS011;38480;52.724;6.436;2023-08-30T06:51:52;16.27;;;11.50;;
52586;SDS011;38480;52.724;6.436;2023-08-30T06:54:18;15.30;;;11.93;;
52586;SDS011;38480;52.724;6.436;2023-08-30T06:56:57;12.70;;;11.37;;
52586;SDS011;38480;52.724;6.436;2023-08-30T06:59:23;16.67;;;11.63;;
52586;SDS011;38480;52.724;6.436;2023-08-30T07:01:49;15.77;;;11.40;;
52586;SDS011;38480;52.724;6.436;2023-08-30T07:04:15;13.47;;;10.77;;
52586;SDS011;38480;52.724;6.436;2023-08-30T07:06:41;14.27;;;11.33;;
52586;SDS011;38480;52.724;6.436;2023-08-30T07:09:07;14.17;;;11.73;;
52586;SDS011;38480;52.724;6.436;2023-08-30T07:11:33;15.60;;;11.70;;
52586;SDS011;38480;52.724;6.436;2023-08-30T07:13:59;16.57;;;11.93;;
52586;SDS011;38480;52.724;6.436;2023-08-30T07:16:25;17.20;;;12.63;;
52586;SDS011;38480;52.724;6.436;2023-08-30T07:18:52;16.00;;;11.60;;
52586;SDS011;38480;52.724;6.436;2023-08-30T07:21:18;15.03;;;11.67;;
52586;SDS011;38480;52.724;6.436;2023-08-30T07:23:44;13.27;;;11.33;;
52586;SDS011;38480;52.724;6.436;2023-08-30T07:26:10;16.43;;;10.80;;
52586;SDS011;38480;52.724;6.436;2023-08-30T07:28:36;18.23;;;11.03;;
52586;SDS011;38480;52.724;6.436;2023-08-30T07:31:02;16.57;;;10.80;;
52586;SDS011;38480;52.724;6.436;2023-08-30T07:33:28;17.77;;;11.63;;
52586;SDS011;38480;52.724;6.436;2023-08-30T07:35:54;15.00;;;11.90;;
52586;SDS011;38480;52.724;6.436;2023-08-30T07:38:20;16.33;;;11.67;;
52586;SDS011;38480;52.724;6.436;2023-08-30T07:40:46;16.17;;;11.50;;
52586;SDS011;38480;52.724;6.436;2023-08-30T07:43:12;15.53;;;11.10;;
52586;SDS011;38480;52.724;6.436;2023-08-30T07:45:38;15.77;;;11.50;;
52586;SDS011;38480;52.724;6.436;2023-08-30T07:48:04;14.20;;;11.03;;
52586;SDS011;38480;52.724;6.436;2023-08-30T07:50:30;13.03;;;10.63;;
52586;SDS011;38480;52.724;6.436;2023-08-30T07:52:56;19.00;;;11.23;;
52586;SDS011;38480;52.724;6.436;2023-08-30T07:55:23;14.37;;;10.70;;
52586;SDS011;38480;52.724;6.436;2023-08-30T07:57:49;14.23;;;10.43;;
52586;SDS011;38480;52.724;6.436;2023-08-30T08:00:15;14.67;;;10.60;;
52586;SDS011;38480;52.724;6.436;2023-08-30T08:02:41;18.10;;;12.40;;
52586;SDS011;38480;52.724;6.436;2023-08-30T08:05:07;14.20;;;11.50;;
52586;SDS011;38480;52.724;6.436;2023-08-30T08:07:33;14.90;;;10.30;;
52586;SDS011;38480;52.724;6.436;2023-08-30T08:09:59;14.50;;;11.03;;
52586;SDS011;38480;52.724;6.436;2023-08-30T08:12:26;13.90;;;10.97;;
52586;SDS011;38480;52.724;6.436;2023-08-30T08:14:52;12.83;;;10.67;;
52586;SDS011;38480;52.724;6.436;2023-08-30T08:17:18;13.00;;;10.50;;
52586;SDS011;38480;52.724;6.436;2023-08-30T08:19:44;14.07;;;11.17;;
52586;SDS011;38480;52.724;6.436;2023-08-30T08:22:10;16.10;;;10.73;;
52586;SDS011;38480;52.724;6.436;2023-08-30T08:24:36;15.93;;;11.07;;
52586;SDS011;38480;52.724;6.436;2023-08-30T08:27:02;14.47;;;11.50;;
52586;SDS011;38480;52.724;6.436;2023-08-30T08:29:30;14.03;;;10.67;;
52586;SDS011;38480;52.724;6.436;2023-08-30T08:31:56;14.97;;;12.83;;
52586;SDS011;38480;52.724;6.436;2023-08-30T08:34:22;16.03;;;13.03;;
52586;SDS011;38480;52.724;6.436;2023-08-30T08:36:48;19.77;;;14.20;;
52586;SDS011;38480;52.724;6.436;2023-08-30T08:39:14;17.60;;;13.87;;
52586;SDS011;38480;52.724;6.436;2023-08-30T08:41:41;20.87;;;15.40;;
52586;SDS011;38480;52.724;6.436;2023-08-30T08:44:07;22.83;;;14.97;;
52586;SDS011;38480;52.724;6.436;2023-08-30T08:46:34;22.97;;;16.47;;
52586;SDS011;38480;52.724;6.436;2023-08-30T08:49:05;23.87;;;17.30;;
52586;SDS011;38480;52.724;6.436;2023-08-30T08:51:33;25.17;;;18.23;;
52586;SDS011;38480;52.724;6.436;2023-08-30T08:54:01;23.83;;;18.00;;
52586;SDS011;38480;52.724;6.436;2023-08-30T08:56:28;27.33;;;17.73;;
52586;SDS011;38480;52.724;6.436;2023-08-30T08:58:54;28.80;;;17.43;;
52586;SDS011;38480;52.724;6.436;2023-08-30T09:01:21;32.47;;;19.03;;
52586;SDS011;38480;52.724;6.436;2023-08-30T09:03:46;34.83;;;19.90;;
52586;SDS011;38480;52.724;6.436;2023-08-30T09:06:13;29.40;;;19.47;;
52586;SDS011;38480;52.724;6.436;2023-08-30T09:08:40;25.37;;;19.83;;
52586;SDS011;38480;52.724;6.436;2023-08-30T09:11:06;31.67;;;21.47;;
52586;SDS011;38480;52.724;6.436;2023-08-30T09:13:32;36.67;;;21.40;;
52586;SDS011;38480;52.724;6.436;2023-08-30T09:15:58;29.33;;;20.10;;
52586;SDS011;38480;52.724;6.436;2023-08-30T09:18:24;44.17;;;22.27;;
52586;SDS011;38480;52.724;6.436;2023-08-30T09:21:04;39.53;;;21.83;;
52586;SDS011;38480;52.724;6.436;2023-08-30T09:23:30;46.33;;;24.03;;
52586;SDS011;38480;52.724;6.436;2023-08-30T09:25:58;27.13;;;19.90;;
52586;SDS011;38480;52.724;6.436;2023-08-30T09:28:24;32.33;;;20.13;;
52586;SDS011;38480;52.724;6.436;2023-08-30T09:30:50;35.70;;;19.40;;
52586;SDS011;38480;52.724;6.436;2023-08-30T09:33:23;27.20;;;18.77;;
52586;SDS011;38480;52.724;6.436;2023-08-30T09:35:49;28.73;;;17.77;;
52586;SDS011;38480;52.724;6.436;2023-08-30T09:38:16;27.80;;;16.67;;
52586;SDS011;38480;52.724;6.436;2023-08-30T09:40:42;24.30;;;15.57;;
52586;SDS011;38480;52.724;6.436;2023-08-30T09:43:09;23.27;;;14.77;;
52586;SDS011;38480;52.724;6.436;2023-08-30T09:45:35;33.17;;;17.43;;
52586;SDS011;38480;52.724;6.436;2023-08-30T09:48:01;23.20;;;14.93;;
52586;SDS011;38480;52.724;6.436;2023-08-30T09:50:27;27.20;;;17.10;;
52586;SDS011;38480;52.724;6.436;2023-08-30T09:52:54;22.40;;;14.13;;
52586;SDS011;38480;52.724;6.436;2023-08-30T09:55:20;23.07;;;14.60;;
52586;SDS011;38480;52.724;6.436;2023-08-30T09:57:47;28.27;;;17.20;;
52586;SDS011;38480;52.724;6.436;2023-08-30T10:00:14;21.40;;;14.33;;
52586;SDS011;38480;52.724;6.436;2023-08-30T10:02:43;19.10;;;13.47;;
52586;SDS011;38480;52.724;6.436;2023-08-30T10:05:10;16.27;;;12.93;;
52586;SDS011;38480;52.724;6.436;2023-08-30T10:07:38;16.13;;;12.40;;
52586;SDS011;38480;52.724;6.436;2023-08-30T10:10:04;20.97;;;13.97;;
52586;SDS011;38480;52.724;6.436;2023-08-30T10:12:33;21.60;;;13.97;;
52586;SDS011;38480;52.724;6.436;2023-08-30T10:14:59;15.97;;;11.40;;
52586;SDS011;38480;52.724;6.436;2023-08-30T10:17:27;16.80;;;12.00;;
52586;SDS011;38480;52.724;6.436;2023-08-30T10:19:53;17.07;;;11.93;;
52586;SDS011;38480;52.724;6.436;2023-08-30T10:22:19;16.57;;;11.93;;
52586;SDS011;38480;52.724;6.436;2023-08-30T10:24:53;20.27;;;12.77;;
52586;SDS011;38480;52.724;6.436;2023-08-30T10:27:20;17.53;;;12.77;;
52586;SDS011;38480;52.724;6.436;2023-08-30T10:29:47;15.13;;;11.67;;
52586;SDS011;38480;52.724;6.436;2023-08-30T10:32:18;15.97;;;12.70;;
52586;SDS011;38480;52.724;6.436;2023-08-30T10:34:47;16.43;;;12.43;;
52586;SDS011;38480;52.724;6.436;2023-08-30T10:37:13;19.03;;;14.17;;
52586;SDS011;38480;52.724;6.436;2023-08-30T10:39:40;20.30;;;14.57;;
52586;SDS011;38480;52.724;6.436;2023-08-30T10:44:35;14.87;;;11.77;;
52586;SDS011;38480;52.724;6.436;2023-08-30T10:47:17;21.93;;;14.80;;
52586;SDS011;38480;52.724;6.436;2023-08-30T10:49:43;19.90;;;13.73;;
52586;SDS011;38480;52.724;6.436;2023-08-30T10:52:11;19.87;;;13.73;;
52586;SDS011;38480;52.724;6.436;2023-08-30T10:54:37;18.10;;;12.77;;
52586;SDS011;38480;52.724;6.436;2023-08-30T10:57:03;20.43;;;14.60;;
52586;SDS011;38480;52.724;6.436;2023-08-30T10:59:29;20.80;;;14.67;;
52586;SDS011;38480;52.724;6.436;2023-08-30T11:01:56;24.00;;;15.37;;
52586;SDS011;38480;52.724;6.436;2023-08-30T11:04:22;20.80;;;14.13;;
52586;SDS011;38480;52.724;6.436;2023-08-30T11:06:49;23.67;;;15.97;;
52586;SDS011;38480;52.724;6.436;2023-08-30T11:09:15;22.77;;;16.10;;
52586;SDS011;38480;52.724;6.436;2023-08-30T11:11:45;23.43;;;15.57;;
52586;SDS011;38480;52.724;6.436;2023-08-30T11:14:11;34.83;;;19.50;;
52586;SDS011;38480;52.724;6.436;2023-08-30T11:16:37;30.33;;;18.57;;
52586;SDS011;38480;52.724;6.436;2023-08-30T11:19:04;29.90;;;19.30;;
52586;SDS011;38480;52.724;6.436;2023-08-30T11:21:31;29.30;;;18.43;;
52586;SDS011;38480;52.724;6.436;2023-08-30T11:23:57;26.90;;;17.30;;
52586;SDS011;38480;52.724;6.436;2023-08-30T11:26:24;24.43;;;16.63;;
52586;SDS011;38480;52.724;6.436;2023-08-30T11:28:50;25.67;;;16.67;;
52586;SDS011;38480;52.724;6.436;2023-08-30T11:31:27;30.23;;;17.47;;
52586;SDS011;38480;52.724;6.436;2023-08-30T11:33:53;30.07;;;18.13;;
52586;SDS011;38480;52.724;6.436;2023-08-30T11:36:21;36.07;;;20.70;;
52586;SDS011;38480;52.724;6.436;2023-08-30T11:38:47;32.73;;;18.30;;
52586;SDS011;38480;52.724;6.436;2023-08-30T11:41:13;59.33;;;25.50;;
52586;SDS011;38480;52.724;6.436;2023-08-30T11:43:39;35.87;;;20.17;;
52586;SDS011;38480;52.724;6.436;2023-08-30T11:46:05;25.00;;;17.27;;
52586;SDS011;38480;52.724;6.436;2023-08-30T11:48:31;37.97;;;21.20;;
52586;SDS011;38480;52.724;6.436;2023-08-30T11:50:58;46.57;;;23.93;;
52586;SDS011;38480;52.724;6.436;2023-08-30T11:53:24;46.53;;;23.57;;
52586;SDS011;38480;52.724;6.436;2023-08-30T11:55:51;34.40;;;20.03;;
52586;SDS011;38480;52.724;6.436;2023-08-30T11:58:20;39.60;;;20.53;;
52586;SDS011;38480;52.724;6.436;2023-08-30T12:00:46;38.63;;;20.67;;
52586;SDS011;38480;52.724;6.436;2023-08-30T12:03:15;24.70;;;17.27;;
52586;SDS011;38480;52.724;6.436;2023-08-30T12:05:47;34.27;;;19.43;;
52586;SDS011;38480;52.724;6.436;2023-08-30T12:10:40;38.80;;;20.63;;
52586;SDS011;38480;52.724;6.436;2023-08-30T12:13:06;48.00;;;22.60;;
52586;SDS011;38480;52.724;6.436;2023-08-30T12:15:32;27.67;;;16.90;;
52586;SDS011;38480;52.724;6.436;2023-08-30T12:18:05;38.23;;;19.60;;
52586;SDS011;38480;52.724;6.436;2023-08-30T12:20:31;37.53;;;21.13;;
52586;SDS011;38480;52.724;6.436;2023-08-30T12:22:57;29.87;;;17.27;;
52586;SDS011;38480;52.724;6.436;2023-08-30T12:25:23;25.20;;;15.70;;
52586;SDS011;38480;52.724;6.436;2023-08-30T12:27:50;31.33;;;16.83;;
52586;SDS011;38480;52.724;6.436;2023-08-30T12:30:17;44.50;;;20.30;;
52586;SDS011;38480;52.724;6.436;2023-08-30T12:32:43;31.30;;;17.17;;
52586;SDS011;38480;52.724;6.436;2023-08-30T12:35:09;31.67;;;17.30;;
52586;SDS011;38480;52.724;6.436;2023-08-30T12:37:35;36.80;;;17.03;;
52586;SDS011;38480;52.724;6.436;2023-08-30T12:40:01;18.00;;;12.00;;
52586;SDS011;38480;52.724;6.436;2023-08-30T12:42:28;25.90;;;14.87;;
52586;SDS011;38480;52.724;6.436;2023-08-30T12:44:54;22.00;;;14.27;;
52586;SDS011;38480;52.724;6.436;2023-08-30T12:47:20;16.37;;;10.23;;
52586;SDS011;38480;52.724;6.436;2023-08-30T12:49:46;15.23;;;10.43;;
52586;SDS011;38480;52.724;6.436;2023-08-30T12:52:12;13.90;;;10.33;;
52586;SDS011;38480;52.724;6.436;2023-08-30T12:54:38;17.33;;;12.97;;
52586;SDS011;38480;52.724;6.436;2023-08-30T12:57:04;20.03;;;13.57;;
52586;SDS011;38480;52.724;6.436;2023-08-30T12:59:30;16.90;;;11.97;;
52586;SDS011;38480;52.724;6.436;2023-08-30T13:01:56;20.13;;;11.50;;
52586;SDS011;38480;52.724;6.436;2023-08-30T13:04:22;21.43;;;13.83;;
52586;SDS011;38480;52.724;6.436;2023-08-30T13:06:48;22.97;;;14.00;;
52586;SDS011;38480;52.724;6.436;2023-08-30T13:09:16;28.73;;;16.43;;
52586;SDS011;38480;52.724;6.436;2023-08-30T13:11:41;21.40;;;14.30;;
52586;SDS011;38480;52.724;6.436;2023-08-30T13:14:07;17.20;;;13.07;;
52586;SDS011;38480;52.724;6.436;2023-08-30T13:16:33;113.30;;;30.17;;
52586;SDS011;38480;52.724;6.436;2023-08-30T13:19:00;21.50;;;14.27;;
52586;SDS011;38480;52.724;6.436;2023-08-30T13:21:26;15.63;;;12.07;;
52586;SDS011;38480;52.724;6.436;2023-08-30T13:23:52;14.40;;;11.27;;
52586;SDS011;38480;52.724;6.436;2023-08-30T13:26:18;29.50;;;13.53;;
52586;SDS011;38480;52.724;6.436;2023-08-30T13:28:44;180.80;;;30.80;;
52586;SDS011;38480;52.724;6.436;2023-08-30T13:31:10;201.93;;;27.10;;
52586;SDS011;38480;52.724;6.436;2023-08-30T13:33:36;49.23;;;11.47;;
52586;SDS011;38480;52.724;6.436;2023-08-30T13:36:02;193.67;;;25.37;;
52586;SDS011;38480;52.724;6.436;2023-08-30T13:38:28;8.57;;;7.10;;
52586;SDS011;38480;52.724;6.436;2023-08-30T13:40:58;7.47;;;6.67;;
52586;SDS011;38480;52.724;6.436;2023-08-30T13:43:25;7.57;;;6.87;;
52586;SDS011;38480;52.724;6.436;2023-08-30T13:45:56;7.03;;;6.33;;
52586;SDS011;38480;52.724;6.436;2023-08-30T13:48:22;7.53;;;6.80;;
52586;SDS011;38480;52.724;6.436;2023-08-30T13:50:49;8.73;;;6.30;;
52586;SDS011;38480;52.724;6.436;2023-08-30T13:53:15;5.10;;;4.60;;
52586;SDS011;38480;52.724;6.436;2023-08-30T13:55:45;4.30;;;3.80;;
52586;SDS011;38480;52.724;6.436;2023-08-30T13:58:13;4.30;;;3.87;;
52586;SDS011;38480;52.724;6.436;2023-08-30T14:00:39;2.53;;;2.10;;
52586;SDS011;38480;52.724;6.436;2023-08-30T14:03:05;2.40;;;1.93;;
52586;SDS011;38480;52.724;6.436;2023-08-30T14:05:33;3.53;;;1.93;;
52586;SDS011;38480;52.724;6.436;2023-08-30T14:07:59;2.97;;;1.60;;
52586;SDS011;38480;52.724;6.436;2023-08-30T14:10:24;2.33;;;1.20;;
52586;SDS011;38480;52.724;6.436;2023-08-30T14:12:50;2.20;;;1.27;;
52586;SDS011;38480;52.724;6.436;2023-08-30T14:15:17;2.07;;;1.50;;
52586;SDS011;38480;52.724;6.436;2023-08-30T14:17:43;2.50;;;1.70;;
52586;SDS011;38480;52.724;6.436;2023-08-30T14:20:09;2.10;;;1.50;;
52586;SDS011;38480;52.724;6.436;2023-08-30T14:22:35;2.80;;;1.90;;
52586;SDS011;38480;52.724;6.436;2023-08-30T14:25:01;2.30;;;1.90;;
52586;SDS011;38480;52.724;6.436;2023-08-30T14:27:28;5.10;;;2.50;;